Terminal Aerodrome Forecast
Issued by NWS

Home | Current Version | Previous Version | Text Only | Print | Product List | Glossary On
Versions: 1 2 3 4 5 6 7 8 9 10 11 12 13 14 15 16 17 18 19 20 21 22 23 24
000
FTUS44 KOUN 252057 AAA
TAFHBR
TAF AMD
KHBR 252057Z 2521/2618 17014KT 6SM SHRA SCT030 OVC050
      TEMPO 2521/2523 VRB30KT 2SM -TSRA OVC025CB
     FM260300 04010KT 4SM SHRA BR BKN015=

USA.gov is the U.S. government's official web portal to all federal, state and local government web resources and services.